Cincinnati, OH

8:14 AM EDT on July 04, 2015 (GMT -0400)
Delhi Township | | Change Station
CLOSE
Current Station
Personal Weather Station
Location: Cincinnati, OH
Elevation: 842 ft
Nearby Weather Stations

Elev 842 ft 39.10 °N, 84.63 °W | Updated 1 day ago

Clear
Clear
71 °F
Feels Like 71 °F
N
5
Wind Variable Wind from NNE
Gusts mph

Today
High -- | Low -- °F
--% Chance of Precip.
Yesterday
High -- | Low -- °F
Precip. -- in
6:17 AM 9:07 PM
Waning Gibbous, 92% visible
Pressure 29.95 in
Visibility 7.0 miles
Clouds Mostly Cloudy 6000 ft
Mostly Cloudy 7000 ft
Dew Point 59 °F
Humidity 65%
Rainfall in
Snow Depth Not available.
UV 1 out of 12
Pollen 2.50 out of 12
Air Quality Not available.
Flu Activity Not available.
METAR KCVG 041152Z 07005KT 7SM BKN060 BKN070 20/17 A2998 RMK AO2 SLP142 T02000167 10200 20194 53019

More Conditions Fewer Conditions

Pressure 29.95 in
Visibility 7.0 miles
Clouds Mostly Cloudy 6000 ft
Mostly Cloudy 7000 ft
Dew Point 59 °F
Humidity 65%
Rainfall in
Snow Depth Not available.
UV 1 out of 12
Pollen 2.50 out of 12
Air Quality Not available.
Flu Activity Not available.
METAR KCVG 041152Z 07005KT 7SM BKN060 BKN070 20/17 A2998 RMK AO2 SLP142 T02000167 10200 20194 53019

More Conditions Fewer Conditions

10-Day Weather Forecast

×

Almanac

Astronomy

Jul. 04, 2015 Rise Set
Actual Time
Civil Twilight
Nautical Twilight
Astronomical Twilight
Moon
Length of Visible Light
Length of Day
Tomorrow will be .
, % of the Moon is Illuminated

Today's Extremes

State Highs State Lows

Community

WunderPhotos

Upload Photos

1,834,946 photos uploaded!

WunderBlogs® & News

Nearby

Air Quality

  Air Quality AQ Index Pollutant
Not available.

Snow Depth

Station Depth Elevation

Earthquake Activity

City Distance Mag. Time & Date
Minimum magnitude displayed is 2.5.

Coastal Water Temperatures

Place Temperature

Stations

Nearby Weather Stations

Station Location Temp. Windchill Dew Point Humidity Wind Precip. Elev Updated Type